Αναφορές Αεροδρομίων

 

KSJC - San Jose, California, USA
Distance from station: ΒΑ 14km
Ενημερώθηκε: 01/10/2020 17:53
Smoke, Haze, Συννεφιά
Smoke, Haze, Συννεφιά
 Ανεμος από calm
Ανεμος: Απνοια
Θερμοκρασία: 19°C
Σημείο Δρόσου: 10°C
Υγρασία: 56%
Βαρόμετρο: 1015.6 hPa
Περίληψη: Smoke, Haze
Clouds: Συννεφιά
Visibility: 6 km
Cloud details: Few Clouds 30 m
Σχεδόν νεφελώδης 762 m
Συννεφιά 1219 m
2020/10/01 14:53 KSJC 011453Z 00000KT 4SM FU HZ FEW001 BKN025 OVC040 19/10 A2999 RMK AO2 SLP156 FU FEW001 FU BKN025 FU OVC040 T01940100 53005
KNUQ - Moffett Nas/Mtn, California, USA
Distance from station: Β 14km
Ενημερώθηκε: 01/10/2020 16:55
NOT Current
Smoke, Συννεφιά
Smoke, Συννεφιά
 Ανεμος από calm
Ανεμος: Απνοια
Θερμοκρασία: 18°C
Σημείο Δρόσου: 12°C
Υγρασία: 68%
Βαρόμετρο: 1015.2 hPa
Περίληψη: Smoke
Clouds: Συννεφιά
Visibility: 8 km
Cloud details: Μερικώς νεφελώδης 1158 m
Συννεφιά 1402 m
2020/10/01 13:55 KNUQ 011355Z 00000KT 5SM FU SCT038 OVC046 18/12 A2998 RMK AO2
 
KPAO - Palo Alto, California, USA
Distance from station: ΒΒΔ 23km
Ενημερώθηκε: 01/10/2020 04:47
NOT Current
Smoke, Αίθριος
Smoke, Αίθριος
 Ανεμος από ΒΒΔ
Ανεμος: ΒΒΔ 7 km/h
Θερμοκρασία: 23°C
Σημείο Δρόσου: 14°C
Υγρασία: 57%
Βαρόμετρο: 1015.2 hPa
Περίληψη: Smoke
Clouds: Αίθριος
Visibility: 10 km
2020/10/01 01:47 KPAO 010147Z 33004KT 6SM FU SKC 23/14 A2998 RMK LAST
KRHV - San Jose/Reid, California, USA
Distance from station: ΑΒΑ 19km
Ενημερώθηκε: 01/10/2020 17:58
Smoke, Αίθριος
Smoke, Αίθριος
 Ανεμος από calm
Ανεμος: Απνοια
Θερμοκρασία: 18°C
Σημείο Δρόσου: 12°C
Υγρασία: 68%
Βαρόμετρο: 1015.9 hPa
Περίληψη: Smoke
Clouds: Αίθριος
Visibility: 8 km
2020/10/01 14:58 KRHV 011458Z 00000KT 5SM FU SKC 18/12 A3000
 
KOAK - Oakland, California, USA
Distance from station: ΒΒΔ 50km
Ενημερώθηκε: 01/10/2020 17:53
Smoke, Haze, Σχεδόν νεφελώδης
Smoke, Haze, Σχεδόν νεφελώδης
 Ανεμος από calm
Ανεμος: Απνοια
Θερμοκρασία: 19°C
Σημείο Δρόσου: 13°C
Υγρασία: 68%
Βαρόμετρο: 1015.6 hPa
Περίληψη: Smoke, Haze
Clouds: Σχεδόν νεφελώδης
Visibility: 8 km
Cloud details: Few Clouds 610 m
Σχεδόν νεφελώδης 1158 m
2020/10/01 14:53 KOAK 011453Z 00000KT 5SM FU HZ FEW020 BKN038 19/13 A2999 RMK AO2 SLP156 FU FEW020 FU BKN038 T01940133 53005
KSQL - San Carlos Airpo, California, USA
Distance from station: ΒΔ 34km
Ενημερώθηκε: 01/10/2020 17:48
Μερικώς νεφελώδης
Μερικώς νεφελώδης
 Ανεμος από calm
Ανεμος: Απνοια
Θερμοκρασία: 18°C
Σημείο Δρόσου: 11°C
Υγρασία: 64%
Βαρόμετρο: 1015.9 hPa
Clouds: Μερικώς νεφελώδης
Visibility: 11 km
Cloud details: Few Clouds 640 m
Μερικώς νεφελώδης 884 m
2020/10/01 14:48 KSQL 011448Z 00000KT 7SM FEW021 SCT029 18/11 A3000
 
KSFO - San Francisco, California, USA
Distance from station: ΒΔ 49km
Ενημερώθηκε: 01/10/2020 17:56
Συννεφιά
Συννεφιά
 Ανεμος από calm
Ανεμος: Απνοια
Θερμοκρασία: 19°C
Σημείο Δρόσου: 10°C
Υγρασία: 56%
Βαρόμετρο: 1015.2 hPa
Clouds: Συννεφιά
Visibility: 13 km
Cloud details: Few Clouds 274 m
Συννεφιά 1402 m
2020/10/01 14:56 KSFO 011456Z 00000KT 8SM FEW009 OVC046 19/10 A2998 RMK AO2 SLP153 T01890100 53003
KE16 - San Martin, California, USA
Distance from station: ΑΝΑ 43km
Ενημερώθηκε: 01/10/2020 17:50
Haze, Αίθριος
Haze, Αίθριος
 Ανεμος από calm
Ανεμος: Απνοια
Θερμοκρασία: 15°C
Σημείο Δρόσου: 9°C
Υγρασία: 68%
Βαρόμετρο: 1016.9 hPa
Περίληψη: Haze
Clouds: Αίθριος
Visibility: 8 km
2020/10/01 14:50 KE16 011450Z AUTO 00000KT 5SM HZ CLR 15/09 A3003 RMK AO2
 
KWVI - Watsonville, California, USA
Distance from station: ΝΝΑ 44km
Ενημερώθηκε: 01/10/2020 17:53
Haze, Αίθριος
Haze, Αίθριος
 Ανεμος από calm
Ανεμος: Απνοια
Θερμοκρασία: 16°C
Σημείο Δρόσου: 11°C
Υγρασία: 72%
Βαρόμετρο: 1015.6 hPa
Περίληψη: Haze
Clouds: Αίθριος
Visibility: 8 km
2020/10/01 14:53 KWVI 011453Z AUTO 00000KT 5SM HZ CLR 16/11 A2999 RMK AO2 SLP156 T01610106 53002
KHAF - Half Moon Bay, California, USA
Distance from station: ΔΒΔ 50km
Ενημερώθηκε: 01/10/2020 17:55
Αίθριος
Αίθριος
 Ανεμος από ΝΑ
Ανεμος: ΝΑ 6 km/h
Θερμοκρασία: 12°C
Σημείο Δρόσου: 9°C
Υγρασία: 82%
Βαρόμετρο: 1015.9 hPa
Clouds: Αίθριος
Visibility: 11 km
2020/10/01 14:55 KHAF 011455Z AUTO 13003KT 7SM CLR 12/09 A3000 RMK AO2
 
KHWD - Hayward, California, USA
Distance from station: Β 44km
Ενημερώθηκε: 01/10/2020 17:54
Haze, Αίθριος
Haze, Αίθριος
 Ανεμος από ΑΒΑ
Ανεμος: ΑΒΑ 7 km/h
Θερμοκρασία: 21°C
Σημείο Δρόσου: 8°C
Υγρασία: 43%
Βαρόμετρο: 1015.6 hPa
Περίληψη: Haze
Clouds: Αίθριος
Visibility: 10 km
2020/10/01 14:54 KHWD 011454Z 07004KT 6SM HZ CLR 21/08 A2999 RMK AO2 SLP163 T02060078 53004
KLVK - Livermore, California, USA
Distance from station: ΒΒΑ 51km
Ενημερώθηκε: 01/10/2020 17:53
Haze, Smoke, Αίθριος
Haze, Smoke, Αίθριος
 Ανεμος από calm
Ανεμος: Απνοια
Θερμοκρασία: 18°C
Σημείο Δρόσου: 9°C
Υγρασία: 56%
Βαρόμετρο: 1016.3 hPa
Περίληψη: Haze, Smoke
Clouds: Αίθριος
Visibility: 5 km
2020/10/01 14:53 KLVK 011453Z 00000KT 3SM HZ FU CLR 18/09 A3001 RMK AO2 SLP157 T01780089 53003